sensor_id;sensor_type;location;lat;lon;timestamp;P1;durP1;ratioP1;P2;durP2;ratioP2
16673;SDS011;8450;52.654;10.326;2022-09-29T06:06:30;9.37;;;8.17;;
16673;SDS011;8450;52.654;10.326;2022-09-29T06:08:56;13.40;;;8.90;;
16673;SDS011;8450;52.654;10.326;2022-09-29T06:11:25;11.43;;;9.27;;
16673;SDS011;8450;52.654;10.326;2022-09-29T06:13:52;22.73;;;14.27;;
16673;SDS011;8450;52.654;10.326;2022-09-29T06:16:19;19.60;;;12.63;;
16673;SDS011;8450;52.654;10.326;2022-09-29T06:18:46;12.10;;;9.43;;
16673;SDS011;8450;52.654;10.326;2022-09-29T06:21:13;12.03;;;9.97;;
16673;SDS011;8450;52.654;10.326;2022-09-29T06:23:41;19.87;;;13.40;;
16673;SDS011;8450;52.654;10.326;2022-09-29T06:26:08;35.60;;;22.60;;
16673;SDS011;8450;52.654;10.326;2022-09-29T06:28:35;18.50;;;12.87;;
16673;SDS011;8450;52.654;10.326;2022-09-29T06:31:02;18.13;;;13.27;;
16673;SDS011;8450;52.654;10.326;2022-09-29T06:33:30;19.40;;;13.00;;
16673;SDS011;8450;52.654;10.326;2022-09-29T06:35:57;19.00;;;11.97;;
16673;SDS011;8450;52.654;10.326;2022-09-29T06:38:43;17.27;;;12.57;;
16673;SDS011;8450;52.654;10.326;2022-09-29T06:41:09;18.13;;;13.10;;
16673;SDS011;8450;52.654;10.326;2022-09-29T06:43:34;19.57;;;13.97;;
16673;SDS011;8450;52.654;10.326;2022-09-29T06:46:00;15.63;;;12.47;;
16673;SDS011;8450;52.654;10.326;2022-09-29T06:48:27;20.97;;;12.93;;
16673;SDS011;8450;52.654;10.326;2022-09-29T06:50:54;22.03;;;12.10;;
16673;SDS011;8450;52.654;10.326;2022-09-29T06:53:20;15.80;;;11.77;;
16673;SDS011;8450;52.654;10.326;2022-09-29T06:55:53;18.90;;;12.20;;
16673;SDS011;8450;52.654;10.326;2022-09-29T06:58:22;20.27;;;12.80;;
16673;SDS011;8450;52.654;10.326;2022-09-29T07:00:48;16.30;;;11.37;;
16673;SDS011;8450;52.654;10.326;2022-09-29T07:03:13;14.37;;;10.70;;
16673;SDS011;8450;52.654;10.326;2022-09-29T07:05:39;13.90;;;10.10;;
16673;SDS011;8450;52.654;10.326;2022-09-29T07:08:05;12.63;;;9.60;;
16673;SDS011;8450;52.654;10.326;2022-09-29T07:10:30;13.03;;;9.37;;
16673;SDS011;8450;52.654;10.326;2022-09-29T07:12:56;12.90;;;9.17;;
16673;SDS011;8450;52.654;10.326;2022-09-29T07:15:23;12.73;;;8.60;;
16673;SDS011;8450;52.654;10.326;2022-09-29T07:17:55;15.47;;;10.50;;
16673;SDS011;8450;52.654;10.326;2022-09-29T07:20:26;10.97;;;8.63;;
16673;SDS011;8450;52.654;10.326;2022-09-29T07:22:52;11.27;;;8.60;;
16673;SDS011;8450;52.654;10.326;2022-09-29T07:25:18;11.83;;;8.63;;
16673;SDS011;8450;52.654;10.326;2022-09-29T07:27:44;11.17;;;8.60;;
16673;SDS011;8450;52.654;10.326;2022-09-29T07:30:11;11.50;;;8.40;;
16673;SDS011;8450;52.654;10.326;2022-09-29T07:32:37;11.73;;;9.13;;
16673;SDS011;8450;52.654;10.326;2022-09-29T07:35:02;10.83;;;8.20;;
16673;SDS011;8450;52.654;10.326;2022-09-29T07:37:29;11.80;;;8.53;;
16673;SDS011;8450;52.654;10.326;2022-09-29T07:39:54;9.83;;;8.47;;
16673;SDS011;8450;52.654;10.326;2022-09-29T07:42:20;10.53;;;8.73;;
16673;SDS011;8450;52.654;10.326;2022-09-29T07:44:53;9.70;;;8.50;;
16673;SDS011;8450;52.654;10.326;2022-09-29T07:47:19;9.73;;;7.90;;
16673;SDS011;8450;52.654;10.326;2022-09-29T07:49:45;10.70;;;8.40;;
16673;SDS011;8450;52.654;10.326;2022-09-29T07:52:12;11.43;;;8.87;;
16673;SDS011;8450;52.654;10.326;2022-09-29T07:54:38;10.73;;;8.70;;
16673;SDS011;8450;52.654;10.326;2022-09-29T07:57:03;13.63;;;9.23;;
16673;SDS011;8450;52.654;10.326;2022-09-29T07:59:29;11.37;;;9.23;;
16673;SDS011;8450;52.654;10.326;2022-09-29T08:01:55;9.13;;;8.13;;
16673;SDS011;8450;52.654;10.326;2022-09-29T08:04:20;8.87;;;7.90;;
16673;SDS011;8450;52.654;10.326;2022-09-29T08:06:46;10.23;;;9.13;;
16673;SDS011;8450;52.654;10.326;2022-09-29T08:09:13;9.13;;;8.00;;
16673;SDS011;8450;52.654;10.326;2022-09-29T08:11:40;11.73;;;8.37;;
16673;SDS011;8450;52.654;10.326;2022-09-29T08:14:07;9.97;;;8.97;;
16673;SDS011;8450;52.654;10.326;2022-09-29T08:16:34;10.10;;;8.97;;
16673;SDS011;8450;52.654;10.326;2022-09-29T08:19:01;10.40;;;9.27;;
16673;SDS011;8450;52.654;10.326;2022-09-29T08:21:27;10.97;;;9.13;;
16673;SDS011;8450;52.654;10.326;2022-09-29T08:23:54;10.30;;;8.87;;
16673;SDS011;8450;52.654;10.326;2022-09-29T08:26:20;9.97;;;8.97;;
16673;SDS011;8450;52.654;10.326;2022-09-29T08:28:47;11.87;;;9.33;;
16673;SDS011;8450;52.654;10.326;2022-09-29T08:31:16;9.70;;;8.70;;
16673;SDS011;8450;52.654;10.326;2022-09-29T08:33:49;11.77;;;10.10;;
16673;SDS011;8450;52.654;10.326;2022-09-29T08:36:15;9.60;;;8.60;;
16673;SDS011;8450;52.654;10.326;2022-09-29T08:38:45;10.17;;;8.73;;
16673;SDS011;8450;52.654;10.326;2022-09-29T08:43:56;9.77;;;8.77;;
16673;SDS011;8450;52.654;10.326;2022-09-29T08:46:37;8.50;;;7.67;;
16673;SDS011;8450;52.654;10.326;2022-09-29T08:49:10;11.13;;;9.93;;
16673;SDS011;8450;52.654;10.326;2022-09-29T08:51:45;10.60;;;9.57;;
16673;SDS011;8450;52.654;10.326;2022-09-29T08:54:20;10.57;;;9.47;;
16673;SDS011;8450;52.654;10.326;2022-09-29T08:57:01;11.03;;;9.83;;
16673;SDS011;8450;52.654;10.326;2022-09-29T08:59:29;12.00;;;10.20;;
16673;SDS011;8450;52.654;10.326;2022-09-29T09:02:06;11.47;;;10.13;;
16673;SDS011;8450;52.654;10.326;2022-09-29T09:07:42;12.03;;;10.77;;
16673;SDS011;8450;52.654;10.326;2022-09-29T09:15:32;11.47;;;9.90;;
16673;SDS011;8450;52.654;10.326;2022-09-29T09:21:17;9.17;;;8.23;;
16673;SDS011;8450;52.654;10.326;2022-09-29T09:23:54;9.73;;;8.63;;
16673;SDS011;8450;52.654;10.326;2022-09-29T09:26:24;11.63;;;10.43;;
16673;SDS011;8450;52.654;10.326;2022-09-29T09:31:42;9.13;;;8.10;;
16673;SDS011;8450;52.654;10.326;2022-09-29T09:36:56;9.67;;;8.67;;
16673;SDS011;8450;52.654;10.326;2022-09-29T09:39:28;10.60;;;9.50;;
16673;SDS011;8450;52.654;10.326;2022-09-29T09:41:59;10.30;;;9.27;;
16673;SDS011;8450;52.654;10.326;2022-09-29T09:44:32;9.90;;;9.00;;
16673;SDS011;8450;52.654;10.326;2022-09-29T09:47:15;10.30;;;9.30;;
16673;SDS011;8450;52.654;10.326;2022-09-29T09:50:03;9.23;;;8.33;;
16673;SDS011;8450;52.654;10.326;2022-09-29T09:55:25;9.27;;;8.37;;
16673;SDS011;8450;52.654;10.326;2022-09-29T10:03:05;10.20;;;8.67;;
16673;SDS011;8450;52.654;10.326;2022-09-29T10:05:36;9.10;;;8.17;;
16673;SDS011;8450;52.654;10.326;2022-09-29T10:08:05;9.33;;;8.43;;
16673;SDS011;8450;52.654;10.326;2022-09-29T10:10:34;10.57;;;9.50;;
16673;SDS011;8450;52.654;10.326;2022-09-29T10:13:04;9.63;;;8.70;;
16673;SDS011;8450;52.654;10.326;2022-09-29T10:18:00;8.93;;;8.13;;
16673;SDS011;8450;52.654;10.326;2022-09-29T10:20:38;8.90;;;8.10;;
16673;SDS011;8450;52.654;10.326;2022-09-29T10:23:22;10.33;;;9.20;;
16673;SDS011;8450;52.654;10.326;2022-09-29T10:26:54;9.57;;;8.67;;
16673;SDS011;8450;52.654;10.326;2022-09-29T10:31:29;8.87;;;7.97;;
16673;SDS011;8450;52.654;10.326;2022-09-29T10:34:18;8.23;;;7.47;;
16673;SDS011;8450;52.654;10.326;2022-09-29T10:39:40;9.13;;;8.27;;
16673;SDS011;8450;52.654;10.326;2022-09-29T10:44:54;7.93;;;7.13;;
16673;SDS011;8450;52.654;10.326;2022-09-29T10:47:34;9.03;;;7.77;;
16673;SDS011;8450;52.654;10.326;2022-09-29T10:52:32;8.90;;;8.03;;
16673;SDS011;8450;52.654;10.326;2022-09-29T10:54:58;8.80;;;8.00;;
16673;SDS011;8450;52.654;10.326;2022-09-29T10:57:29;8.07;;;7.37;;
16673;SDS011;8450;52.654;10.326;2022-09-29T10:59:57;7.53;;;6.83;;
16673;SDS011;8450;52.654;10.326;2022-09-29T11:02:31;9.50;;;8.60;;
16673;SDS011;8450;52.654;10.326;2022-09-29T11:05:04;9.80;;;8.80;;
16673;SDS011;8450;52.654;10.326;2022-09-29T11:07:46;9.27;;;8.17;;
16673;SDS011;8450;52.654;10.326;2022-09-29T11:10:30;9.43;;;8.00;;
16673;SDS011;8450;52.654;10.326;2022-09-29T11:15:48;7.80;;;7.10;;
16673;SDS011;8450;52.654;10.326;2022-09-29T11:18:21;7.30;;;6.60;;
16673;SDS011;8450;52.654;10.326;2022-09-29T11:21:05;8.07;;;7.30;;
16673;SDS011;8450;52.654;10.326;2022-09-29T11:23:53;8.00;;;7.30;;
16673;SDS011;8450;52.654;10.326;2022-09-29T11:26:51;7.40;;;6.57;;
16673;SDS011;8450;52.654;10.326;2022-09-29T11:40:14;5.13;;;4.70;;
16673;SDS011;8450;52.654;10.326;2022-09-29T11:55:18;5.00;;;4.60;;
16673;SDS011;8450;52.654;10.326;2022-09-29T11:57:35;4.17;;;3.77;;
16673;SDS011;8450;52.654;10.326;2022-09-29T12:00:18;5.00;;;3.87;;
16673;SDS011;8450;52.654;10.326;2022-09-29T12:02:57;3.73;;;3.43;;
16673;SDS011;8450;52.654;10.326;2022-09-29T12:14:18;3.00;;;2.73;;
16673;SDS011;8450;52.654;10.326;2022-09-29T12:16:50;2.80;;;2.40;;
16673;SDS011;8450;52.654;10.326;2022-09-29T12:19:22;2.87;;;2.60;;
16673;SDS011;8450;52.654;10.326;2022-09-29T12:21:53;3.30;;;3.00;;
16673;SDS011;8450;52.654;10.326;2022-09-29T12:24:28;3.10;;;2.90;;
16673;SDS011;8450;52.654;10.326;2022-09-29T12:29:46;3.00;;;2.70;;
16673;SDS011;8450;52.654;10.326;2022-09-29T12:32:18;2.80;;;2.60;;
16673;SDS011;8450;52.654;10.326;2022-09-29T12:34:52;3.57;;;2.73;;
16673;SDS011;8450;52.654;10.326;2022-09-29T12:37:29;2.60;;;2.30;;
16673;SDS011;8450;52.654;10.326;2022-09-29T12:40:13;1.80;;;1.70;;
16673;SDS011;8450;52.654;10.326;2022-09-29T12:42:57;1.70;;;1.60;;
16673;SDS011;8450;52.654;10.326;2022-09-29T12:50:35;1.70;;;1.60;;
16673;SDS011;8450;52.654;10.326;2022-09-29T12:53:13;2.60;;;1.60;;
16673;SDS011;8450;52.654;10.326;2022-09-29T12:55:49;2.17;;;2.00;;
16673;SDS011;8450;52.654;10.326;2022-09-29T12:58:31;1.97;;;1.87;;
16673;SDS011;8450;52.654;10.326;2022-09-29T13:01:20;3.30;;;2.23;;
16673;SDS011;8450;52.654;10.326;2022-09-29T13:20:02;3.40;;;2.57;;
16673;SDS011;8450;52.654;10.326;2022-09-29T13:23:01;2.80;;;2.60;;
16673;SDS011;8450;52.654;10.326;2022-09-29T13:28:40;2.83;;;2.60;;
16673;SDS011;8450;52.654;10.326;2022-09-29T13:31:12;2.70;;;2.50;;
16673;SDS011;8450;52.654;10.326;2022-09-29T13:33:45;2.80;;;2.60;;
16673;SDS011;8450;52.654;10.326;2022-09-29T13:36:25;2.93;;;2.53;;
16673;SDS011;8450;52.654;10.326;2022-09-29T13:38:54;3.73;;;2.73;;
16673;SDS011;8450;52.654;10.326;2022-09-29T13:49:02;3.20;;;2.40;;
16673;SDS011;8450;52.654;10.326;2022-09-29T13:51:41;2.07;;;1.83;;
16673;SDS011;8450;52.654;10.326;2022-09-29T13:54:24;2.50;;;2.30;;
16673;SDS011;8450;52.654;10.326;2022-09-29T13:59:36;2.00;;;1.90;;
16673;SDS011;8450;52.654;10.326;2022-09-29T14:02:17;2.63;;;2.33;;
16673;SDS011;8450;52.654;10.326;2022-09-29T14:13:01;2.73;;;2.53;;
16673;SDS011;8450;52.654;10.326;2022-09-29T14:15:36;2.50;;;2.30;;
16673;SDS011;8450;52.654;10.326;2022-09-29T14:18:13;2.70;;;2.50;;
16673;SDS011;8450;52.654;10.326;2022-09-29T14:20:58;2.67;;;2.40;;
16673;SDS011;8450;52.654;10.326;2022-09-29T14:29:13;3.40;;;1.47;;
16673;SDS011;8450;52.654;10.326;2022-09-29T14:31:50;1.77;;;1.67;;
16673;SDS011;8450;52.654;10.326;2022-09-29T14:34:20;2.17;;;1.97;;
16673;SDS011;8450;52.654;10.326;2022-09-29T14:36:48;3.23;;;2.53;;
16673;SDS011;8450;52.654;10.326;2022-09-29T14:39:16;2.50;;;2.30;;
16673;SDS011;8450;52.654;10.326;2022-09-29T14:41:43;3.27;;;2.30;;
16673;SDS011;8450;52.654;10.326;2022-09-29T14:44:12;3.00;;;2.80;;
16673;SDS011;8450;52.654;10.326;2022-09-29T15:01:27;2.30;;;2.10;;
16673;SDS011;8450;52.654;10.326;2022-09-29T15:04:03;3.17;;;1.80;;
16673;SDS011;8450;52.654;10.326;2022-09-29T15:06:31;1.93;;;1.83;;
16673;SDS011;8450;52.654;10.326;2022-09-29T15:11:34;2.33;;;1.77;;
16673;SDS011;8450;52.654;10.326;2022-09-29T15:14:15;1.57;;;1.43;;
16673;SDS011;8450;52.654;10.326;2022-09-29T15:22:38;1.60;;;1.50;;
16673;SDS011;8450;52.654;10.326;2022-09-29T15:25:20;2.17;;;1.70;;
16673;SDS011;8450;52.654;10.326;2022-09-29T15:27:55;1.47;;;1.37;;
16673;SDS011;8450;52.654;10.326;2022-09-29T15:30:34;2.07;;;1.50;;
16673;SDS011;8450;52.654;10.326;2022-09-29T15:33:16;1.60;;;1.50;;
16673;SDS011;8450;52.654;10.326;2022-09-29T15:35:49;1.87;;;1.67;;
16673;SDS011;8450;52.654;10.326;2022-09-29T15:40:53;2.53;;;1.60;;
16673;SDS011;8450;52.654;10.326;2022-09-29T15:43:22;2.37;;;1.63;;
16673;SDS011;8450;52.654;10.326;2022-09-29T15:45:56;3.13;;;1.50;;
16673;SDS011;8450;52.654;10.326;2022-09-29T15:48:24;1.70;;;1.50;;
16673;SDS011;8450;52.654;10.326;2022-09-29T15:50:51;1.43;;;1.33;;
16673;SDS011;8450;52.654;10.326;2022-09-29T15:53:20;1.70;;;1.60;;
16673;SDS011;8450;52.654;10.326;2022-09-29T15:55:48;2.70;;;1.70;;
16673;SDS011;8450;52.654;10.326;2022-09-29T16:00:55;1.73;;;1.63;;
16673;SDS011;8450;52.654;10.326;2022-09-29T16:03:28;1.70;;;1.60;;
16673;SDS011;8450;52.654;10.326;2022-09-29T16:06:05;2.33;;;1.70;;
16673;SDS011;8450;52.654;10.326;2022-09-29T16:08:37;1.90;;;1.80;;
16673;SDS011;8450;52.654;10.326;2022-09-29T16:11:13;2.03;;;1.73;;
16673;SDS011;8450;52.654;10.326;2022-09-29T16:13:45;1.87;;;1.77;;
16673;SDS011;8450;52.654;10.326;2022-09-29T16:16:14;1.90;;;1.70;;
16673;SDS011;8450;52.654;10.326;2022-09-29T16:18:44;1.97;;;1.80;;
16673;SDS011;8450;52.654;10.326;2022-09-29T16:21:15;1.63;;;1.53;;
16673;SDS011;8450;52.654;10.326;2022-09-29T16:23:49;1.93;;;1.60;;
